createdAt,value
2022-11-13T00:01:36.986Z,102110.63
2022-11-13T00:04:04.693Z,102108.81
2022-11-13T00:06:33.340Z,102099.94
2022-11-13T00:09:02.329Z,102102.44
2022-11-13T00:11:30.026Z,102092.03
2022-11-13T00:13:57.664Z,102103.28
2022-11-13T00:16:25.275Z,102105.78
2022-11-13T00:18:52.951Z,102104.59
2022-11-13T00:21:22.781Z,102107.28
2022-11-13T00:23:51.497Z,102104.50
2022-11-13T00:26:21.910Z,102109.78
2022-11-13T00:28:54.299Z,102100.47
2022-11-13T00:31:22.387Z,102102.44
2022-11-13T00:34:25.813Z,102092.13
2022-11-13T00:36:38.104Z,102087.00
2022-11-13T00:39:05.789Z,102084.22
2022-11-13T00:41:35.283Z,102081.78
2022-11-13T00:44:04.006Z,102079.34
2022-11-13T00:46:31.684Z,102078.63
2022-11-13T00:48:59.368Z,102067.00
2022-11-13T00:51:27.023Z,102072.47
2022-11-13T00:53:54.678Z,102073.38
2022-11-13T00:56:22.356Z,102083.47
2022-11-13T00:58:51.369Z,102072.06
2022-11-13T01:01:20.652Z,102077.16
2022-11-13T01:03:48.368Z,102081.56
2022-11-13T01:06:18.544Z,102074.50
2022-11-13T01:08:46.236Z,102070.50
2022-11-13T01:11:16.228Z,102077.38
2022-11-13T01:13:45.273Z,102068.66
2022-11-13T01:16:14.969Z,102062.53
2022-11-13T01:18:43.239Z,102066.00
2022-11-13T01:21:12.631Z,102063.59
2022-11-13T01:23:40.401Z,102061.00
2022-11-13T01:26:09.626Z,102062.63
2022-11-13T01:28:37.717Z,102051.25
2022-11-13T01:31:06.521Z,102050.16
2022-11-13T01:33:35.848Z,102054.78
2022-11-13T01:36:05.156Z,102052.00
2022-11-13T01:38:36.226Z,102057.84
2022-11-13T01:41:05.158Z,102040.56
2022-11-13T01:43:34.512Z,102051.88
2022-11-13T01:46:21.428Z,102041.03
2022-11-13T01:48:52.909Z,102045.22
2022-11-13T01:51:25.652Z,102038.88
2022-11-13T01:53:54.177Z,102034.47
2022-11-13T01:56:22.610Z,102030.81
2022-11-13T01:58:54.288Z,102040.03
2022-11-13T02:01:21.965Z,102021.28
2022-11-13T02:03:51.012Z,102010.44
2022-11-13T02:06:18.781Z,102028.41
2022-11-13T02:08:46.421Z,102028.47
2022-11-13T02:11:14.430Z,102025.69
2022-11-13T02:13:42.273Z,102024.88
2022-11-13T02:16:10.501Z,102020.19
2022-11-13T02:18:38.488Z,102012.66
2022-11-13T02:21:16.216Z,102017.78
2022-11-13T02:23:47.572Z,102016.88
2022-11-13T02:26:17.758Z,102002.84
2022-11-13T02:28:45.919Z,102012.44
2022-11-13T02:31:14.829Z,101994.31
2022-11-13T02:33:42.535Z,102006.81
2022-11-13T02:36:10.928Z,102002.19
2022-11-13T02:38:39.752Z,101992.84
2022-11-13T02:41:07.520Z,101998.47
2022-11-13T02:43:36.792Z,102011.66
2022-11-13T02:46:04.970Z,102002.00
2022-11-13T02:48:32.704Z,101993.72
2022-11-13T02:51:00.372Z,101998.66
2022-11-13T02:53:28.008Z,102000.09
2022-11-13T02:55:55.676Z,101997.28
2022-11-13T02:58:23.300Z,101991.19
2022-11-13T03:00:52.396Z,101988.03
2022-11-13T03:03:41.021Z,101993.03
2022-11-13T03:06:07.772Z,101988.53
2022-11-13T03:08:36.478Z,101991.78
2022-11-13T03:11:08.558Z,101995.09
2022-11-13T03:13:36.356Z,101990.84
2022-11-13T03:16:13.899Z,101982.94
2022-11-13T03:18:41.835Z,101981.41
2022-11-13T03:21:11.168Z,101978.00
2022-11-13T03:23:38.885Z,101977.91
2022-11-13T03:26:08.021Z,101980.53
2022-11-13T03:28:35.900Z,101975.59
2022-11-13T03:31:04.733Z,101975.94
2022-11-13T03:33:34.220Z,101971.16
2022-11-13T03:36:01.951Z,101971.69
2022-11-13T03:38:29.942Z,101962.06
2022-11-13T03:40:58.010Z,101964.59
2022-11-13T03:43:25.674Z,101965.31
2022-11-13T03:45:53.301Z,101957.53
2022-11-13T03:48:20.964Z,101968.63
2022-11-13T03:50:54.495Z,101962.53
2022-11-13T03:53:22.172Z,101962.69
2022-11-13T03:55:49.839Z,101954.78
2022-11-13T03:58:17.641Z,101956.09
2022-11-13T04:00:45.552Z,101945.25
2022-11-13T04:03:13.364Z,101954.78
2022-11-13T04:05:41.293Z,101948.22
2022-11-13T04:08:10.487Z,101944.31
2022-11-13T04:10:38.156Z,101946.44
2022-11-13T04:13:05.793Z,101936.31
2022-11-13T04:15:33.464Z,101944.69
2022-11-13T04:18:01.138Z,101933.91
2022-11-13T04:20:28.834Z,101936.31
2022-11-13T04:22:57.016Z,101931.31
2022-11-13T04:25:26.096Z,101925.16
2022-11-13T04:27:54.327Z,101915.16
2022-11-13T04:30:22.007Z,101917.91
2022-11-13T04:32:49.634Z,101917.91
2022-11-13T04:35:17.339Z,101917.47
2022-11-13T04:37:45.012Z,101908.44
2022-11-13T04:40:13.068Z,101905.19
2022-11-13T04:42:50.886Z,101907.44
2022-11-13T04:45:19.678Z,101896.25
2022-11-13T04:47:47.544Z,101907.44
2022-11-13T04:50:16.534Z,101906.72
2022-11-13T04:52:44.753Z,101910.88
2022-11-13T04:55:12.891Z,101897.31
2022-11-13T04:57:42.034Z,101894.78
2022-11-13T05:00:11.066Z,101900.34
2022-11-13T05:02:38.755Z,101895.75
2022-11-13T05:05:07.176Z,101896.50
2022-11-13T05:07:34.835Z,101898.38
2022-11-13T05:10:02.495Z,101902.81
2022-11-13T05:12:30.171Z,101892.19
2022-11-13T05:14:59.146Z,101891.09
2022-11-13T05:17:26.867Z,101889.59
2022-11-13T05:19:54.630Z,101879.25
2022-11-13T05:22:22.300Z,101885.09
2022-11-13T05:24:49.917Z,101875.22
2022-11-13T05:27:18.026Z,101866.75
2022-11-13T05:29:45.742Z,101876.34
2022-11-13T05:32:15.060Z,101873.75
2022-11-13T05:34:42.744Z,101879.59
2022-11-13T05:37:10.375Z,101884.69
2022-11-13T05:39:38.024Z,101867.81
2022-11-13T05:42:06.735Z,101866.88
2022-11-13T05:44:34.462Z,101857.97
2022-11-13T05:47:02.128Z,101852.31
2022-11-13T05:49:31.123Z,101854.47
2022-11-13T05:51:58.772Z,101850.94
2022-11-13T05:54:26.418Z,101854.72
2022-11-13T05:56:54.048Z,101846.84
2022-11-13T05:59:21.716Z,101837.03
2022-11-13T06:01:49.382Z,101853.44
2022-11-13T06:04:17.080Z,101850.75
2022-11-13T06:06:46.106Z,101851.88
2022-11-13T06:09:17.158Z,101851.19
2022-11-13T06:11:45.128Z,101853.56
2022-11-13T06:14:12.789Z,101854.41
2022-11-13T06:16:40.957Z,101841.91
2022-11-13T06:19:11.003Z,101845.59
2022-11-13T06:21:40.841Z,101839.81
2022-11-13T06:24:12.711Z,101844.63
2022-11-13T06:26:40.688Z,101842.56
2022-11-13T06:29:10.696Z,101843.97
2022-11-13T06:31:38.744Z,101840.66
2022-11-13T06:34:07.295Z,101842.34
2022-11-13T06:36:36.250Z,101851.59
2022-11-13T06:39:07.009Z,101840.47
2022-11-13T06:41:36.291Z,101841.91
2022-11-13T06:44:03.982Z,101836.91
2022-11-13T06:46:31.955Z,101840.44
2022-11-13T06:48:59.843Z,101845.81
2022-11-13T06:51:28.912Z,101846.59
2022-11-13T06:53:56.935Z,101835.97
2022-11-13T06:56:25.197Z,101849.22
2022-11-13T06:58:54.977Z,101846.56
2022-11-13T07:01:24.376Z,101843.72
2022-11-13T07:03:52.119Z,101845.44
2022-11-13T07:06:21.808Z,101844.78
2022-11-13T07:08:49.576Z,101845.66
2022-11-13T07:11:18.382Z,101851.34
2022-11-13T07:13:46.178Z,101831.22
2022-11-13T07:16:18.010Z,101845.16
2022-11-13T07:18:46.168Z,101843.72
2022-11-13T07:21:13.903Z,101841.56
2022-11-13T07:23:43.312Z,101849.97
2022-11-13T07:26:57.832Z,101844.13
2022-11-13T07:29:25.485Z,101845.03
2022-11-13T07:31:53.499Z,101846.44
2022-11-13T07:34:21.178Z,101848.97
2022-11-13T07:36:48.795Z,101851.84
2022-11-13T07:39:16.438Z,101853.88
2022-11-13T07:41:44.145Z,101844.22
2022-11-13T07:44:27.272Z,101845.28
2022-11-13T07:47:00.740Z,101841.34
2022-11-13T07:49:28.396Z,101846.56
2022-11-13T07:51:56.025Z,101840.69
2022-11-13T07:54:23.687Z,101843.47
2022-11-13T07:56:51.347Z,101839.06
2022-11-13T07:59:20.323Z,101835.44
2022-11-13T08:01:48.067Z,101831.22
2022-11-13T08:04:15.688Z,101847.31
2022-11-13T08:06:43.483Z,101841.97
2022-11-13T08:09:11.168Z,101829.88
2022-11-13T08:11:38.866Z,101835.00
2022-11-13T08:14:06.530Z,101828.66
2022-11-13T08:16:35.595Z,101823.66
2022-11-13T08:19:03.401Z,101837.09
2022-11-13T08:21:31.371Z,101839.50
2022-11-13T08:23:59.090Z,101838.03
2022-11-13T08:26:26.795Z,101823.34
2022-11-13T08:28:54.445Z,101836.38
2022-11-13T08:31:22.097Z,101824.84
2022-11-13T08:33:51.069Z,101816.63
2022-11-13T08:36:18.727Z,101813.16
2022-11-13T08:38:46.371Z,101821.50
2022-11-13T08:41:14.012Z,101815.06
2022-11-13T08:43:41.665Z,101825.09
2022-11-13T08:46:09.341Z,101824.34
2022-11-13T08:48:37.696Z,101813.88
2022-11-13T08:51:07.047Z,101819.25
2022-11-13T08:53:34.677Z,101815.84
2022-11-13T08:56:02.963Z,101812.75
2022-11-13T08:58:30.940Z,101816.34
2022-11-13T09:01:01.507Z,101816.22
2022-11-13T09:03:29.248Z,101817.81
2022-11-13T09:05:56.948Z,101811.22
2022-11-13T09:08:26.199Z,101804.97
2022-11-13T09:10:54.152Z,101801.69
2022-11-13T09:13:21.772Z,101813.34
2022-11-13T09:15:49.442Z,101816.75
2022-11-13T09:18:17.065Z,101800.41
2022-11-13T09:20:44.801Z,101791.88
2022-11-13T09:23:12.484Z,101793.97
2022-11-13T09:25:41.532Z,101796.91
2022-11-13T09:28:09.832Z,101780.69
2022-11-13T09:30:39.045Z,101790.47
2022-11-13T09:33:07.436Z,101796.25
2022-11-13T09:35:35.120Z,101786.06
2022-11-13T09:38:07.923Z,101787.69
2022-11-13T09:40:43.287Z,101780.69
2022-11-13T09:43:21.517Z,101783.44
2022-11-13T09:45:49.539Z,101784.31
2022-11-13T09:48:25.268Z,101780.72
2022-11-13T09:50:53.482Z,101772.34
2022-11-13T09:53:21.323Z,101787.41
2022-11-13T09:55:58.086Z,101774.91
2022-11-13T09:58:32.405Z,101776.34
2022-11-13T10:01:01.700Z,101778.38
2022-11-13T10:06:30.609Z,101764.81
2022-11-13T10:08:59.620Z,101773.00
2022-11-13T10:11:39.449Z,101756.03
2022-11-13T10:14:19.169Z,101761.44
2022-11-13T10:16:50.440Z,101757.94
2022-11-13T10:19:22.768Z,101759.31
2022-11-13T10:22:07.813Z,101764.94
2022-11-13T10:24:42.985Z,101775.41
2022-11-13T10:27:13.299Z,101765.44
2022-11-13T10:29:46.184Z,101751.97
2022-11-13T10:32:18.721Z,101759.44
2022-11-13T10:34:50.189Z,101747.28
2022-11-13T10:37:28.620Z,101752.91
2022-11-13T10:39:56.253Z,101730.72
2022-11-13T10:42:29.648Z,101732.88
2022-11-13T10:44:59.345Z,101731.03
2022-11-13T10:47:56.669Z,101739.34
2022-11-13T10:50:21.533Z,101742.34
2022-11-13T10:52:50.555Z,101731.41
2022-11-13T10:55:24.257Z,101723.22
2022-11-13T10:58:01.352Z,101728.13
2022-11-13T11:00:32.918Z,101720.63
2022-11-13T11:03:00.700Z,101715.53
2022-11-13T11:05:29.706Z,101720.25
2022-11-13T11:07:58.219Z,101696.97
2022-11-13T11:10:32.053Z,101696.38
2022-11-13T11:13:04.476Z,101693.69
2022-11-13T11:15:41.053Z,101698.28
2022-11-13T11:18:20.199Z,101694.38
2022-11-13T11:20:50.948Z,101682.63
2022-11-13T11:23:24.349Z,101685.66
2022-11-13T11:25:55.976Z,101677.03
2022-11-13T11:28:31.453Z,101671.66
2022-11-13T11:31:06.184Z,101678.75
2022-11-13T11:33:36.313Z,101673.56
2022-11-13T11:36:09.716Z,101671.06
2022-11-13T11:38:43.624Z,101666.56
2022-11-13T11:41:16.904Z,101660.88
2022-11-13T11:43:49.944Z,101665.00
2022-11-13T11:46:23.394Z,101647.88
2022-11-13T11:48:51.836Z,101648.16
2022-11-13T11:51:25.437Z,101661.44
2022-11-13T11:54:31.365Z,101641.94
2022-11-13T11:57:02.672Z,101653.19
2022-11-13T11:59:38.483Z,101659.13
2022-11-13T12:02:36.158Z,101651.81
2022-11-13T12:05:20.366Z,101639.72
2022-11-13T12:07:56.488Z,101627.47
2022-11-13T12:10:31.245Z,101627.53
2022-11-13T12:13:14.576Z,101621.31
2022-11-13T12:15:50.947Z,101615.72
2022-11-13T12:18:28.821Z,101626.78
2022-11-13T12:21:03.700Z,101609.75
2022-11-13T12:23:38.534Z,101603.97
2022-11-13T12:26:13.552Z,101612.44
2022-11-13T12:30:15.365Z,101601.19
2022-11-13T12:33:00.754Z,101592.06
2022-11-13T12:35:28.923Z,101617.34
2022-11-13T12:37:59.147Z,101599.09
2022-11-13T12:40:32.710Z,101591.03
2022-11-13T12:43:24.104Z,101582.91
2022-11-13T12:45:54.456Z,101589.44
2022-11-13T12:48:28.191Z,101588.84
2022-11-13T12:51:01.140Z,101578.69
2022-11-13T12:53:31.135Z,101576.91
2022-11-13T12:56:00.924Z,101590.00
2022-11-13T12:58:30.865Z,101586.03
2022-11-13T13:01:03.424Z,101581.19
2022-11-13T13:03:47.009Z,101571.44
2022-11-13T13:06:25.239Z,101561.13
2022-11-13T13:09:04.405Z,101566.16
2022-11-13T13:11:39.544Z,101572.75
2022-11-13T13:14:21.693Z,101560.75
2022-11-13T13:16:50.696Z,101562.75
2022-11-13T13:19:26.808Z,101567.97
2022-11-13T13:21:54.618Z,101542.56
2022-11-13T13:24:30.176Z,101547.69
2022-11-13T13:26:57.962Z,101551.75
2022-11-13T13:29:27.076Z,101546.72
2022-11-13T13:32:10.063Z,101534.56
2022-11-13T13:34:47.707Z,101532.50
2022-11-13T13:37:23.398Z,101519.03
2022-11-13T13:39:58.442Z,101525.56
2022-11-13T13:42:42.298Z,101506.03
2022-11-13T13:45:24.932Z,101505.94
2022-11-13T13:47:56.089Z,101508.75
2022-11-13T13:50:26.263Z,101512.53
2022-11-13T13:52:55.943Z,101509.03
2022-11-13T13:55:28.855Z,101507.59
2022-11-13T13:57:57.741Z,101501.56
2022-11-13T14:00:26.984Z,101502.69
2022-11-13T14:02:56.004Z,101493.59
2022-11-13T14:05:31.391Z,101490.16
2022-11-13T14:07:59.698Z,101488.25
2022-11-13T14:10:28.925Z,101489.75
2022-11-13T14:12:57.517Z,101482.59
2022-11-13T14:15:28.296Z,101469.03
2022-11-13T14:18:08.444Z,101477.00
2022-11-13T14:20:41.936Z,101480.94
2022-11-13T14:23:12.419Z,101470.09
2022-11-13T14:25:40.297Z,101468.00
2022-11-13T14:28:15.060Z,101462.88
2022-11-13T14:30:42.896Z,101466.84
2022-11-13T14:33:14.883Z,101462.66
2022-11-13T14:35:42.572Z,101455.44
2022-11-13T14:38:20.248Z,101447.41
2022-11-13T14:40:49.156Z,101458.84
2022-11-13T14:43:21.692Z,101458.59
2022-11-13T14:45:58.165Z,101454.88
2022-11-13T14:48:28.630Z,101442.50
2022-11-13T14:50:58.179Z,101450.28
2022-11-13T14:53:31.569Z,101444.19
2022-11-13T14:56:02.503Z,101442.88
2022-11-13T14:58:31.677Z,101444.78
2022-11-13T15:01:00.140Z,101437.81
2022-11-13T15:03:29.713Z,101441.34
2022-11-13T15:05:57.616Z,101431.69
2022-11-13T15:08:25.303Z,101426.78
2022-11-13T15:10:53.227Z,101423.88
2022-11-13T15:13:20.885Z,101426.63
2022-11-13T15:15:48.530Z,101419.78
2022-11-13T15:18:18.240Z,101422.78
2022-11-13T15:20:47.428Z,101435.03
2022-11-13T15:23:16.936Z,101426.19
2022-11-13T15:25:44.648Z,101422.72
2022-11-13T15:28:12.296Z,101427.94
2022-11-13T15:30:39.957Z,101427.06
2022-11-13T15:33:14.307Z,101423.31
2022-11-13T15:35:43.090Z,101413.16
2022-11-13T15:38:12.545Z,101409.38
2022-11-13T15:40:40.445Z,101417.53
2022-11-13T15:43:13.084Z,101419.06
2022-11-13T15:45:44.183Z,101413.34
2022-11-13T15:48:13.499Z,101409.59
2022-11-13T15:50:41.216Z,101408.38
2022-11-13T15:53:10.007Z,101416.53
2022-11-13T15:55:40.768Z,101412.00
2022-11-13T15:58:14.986Z,101419.41
2022-11-13T16:00:42.916Z,101402.91
2022-11-13T16:03:12.049Z,101403.16
2022-11-13T16:05:39.812Z,101402.16
2022-11-13T16:08:12.603Z,101396.31
2022-11-13T16:10:41.613Z,101396.22
2022-11-13T16:13:09.268Z,101392.50
2022-11-13T16:15:36.896Z,101391.56
2022-11-13T16:18:04.698Z,101379.53
2022-11-13T16:20:32.483Z,101390.56
2022-11-13T16:23:00.169Z,101366.94
2022-11-13T16:25:27.840Z,101378.66
2022-11-13T16:27:56.865Z,101383.25
2022-11-13T16:30:25.320Z,101385.84
2022-11-13T16:32:53.234Z,101389.94
2022-11-13T16:35:21.572Z,101374.81
2022-11-13T16:37:49.270Z,101382.75
2022-11-13T16:40:21.089Z,101381.75
2022-11-13T16:42:48.785Z,101378.69
2022-11-13T16:45:17.980Z,101384.66
2022-11-13T16:47:46.399Z,101367.75
2022-11-13T16:50:15.583Z,101354.41
2022-11-13T16:52:43.331Z,101348.03
2022-11-13T16:55:11.244Z,101343.19
2022-11-13T16:57:39.118Z,101342.19
2022-11-13T17:00:08.378Z,101340.78
2022-11-13T17:02:37.523Z,101349.63
2022-11-13T17:05:05.936Z,101345.06
2022-11-13T17:07:33.658Z,101347.25
2022-11-13T17:10:29.814Z,101341.50
2022-11-13T17:12:52.058Z,101333.28
2022-11-13T17:15:20.236Z,101325.09
2022-11-13T17:17:49.456Z,101323.00
2022-11-13T17:20:19.392Z,101331.34
2022-11-13T17:22:49.737Z,101334.66
2022-11-13T17:25:18.518Z,101331.38
2022-11-13T17:27:46.367Z,101328.50
2022-11-13T17:30:15.162Z,101309.06
2022-11-13T17:32:43.793Z,101320.25
2022-11-13T17:35:14.399Z,101313.63
2022-11-13T17:37:42.394Z,101328.34
2022-11-13T17:40:11.306Z,101326.25
2022-11-13T17:42:38.967Z,101330.09
2022-11-13T17:45:07.661Z,101343.38
2022-11-13T17:47:35.406Z,101335.63
2022-11-13T17:50:07.290Z,101333.66
2022-11-13T17:52:36.956Z,101325.31
2022-11-13T17:55:07.271Z,101331.44
2022-11-13T17:57:34.996Z,101325.25
2022-11-13T18:00:02.755Z,101324.06
2022-11-13T18:02:30.572Z,101331.44
2022-11-13T18:05:01.153Z,101317.16
2022-11-13T18:07:28.977Z,101323.22
2022-11-13T18:09:58.279Z,101327.75
2022-11-13T18:12:25.905Z,101320.41
2022-11-13T18:14:53.579Z,101326.28
2022-11-13T18:17:22.058Z,101325.50
2022-11-13T18:19:50.544Z,101316.38
2022-11-13T18:22:18.296Z,101314.78
2022-11-13T18:24:45.994Z,101316.97
2022-11-13T18:27:15.287Z,101317.66
2022-11-13T18:29:42.929Z,101303.91
2022-11-13T18:32:10.654Z,101320.56
2022-11-13T18:34:38.292Z,101321.09
2022-11-13T18:37:06.004Z,101314.31
2022-11-13T18:39:33.643Z,101306.22
2022-11-13T18:42:01.302Z,101298.38
2022-11-13T18:44:30.452Z,101306.00
2022-11-13T18:46:58.128Z,101292.88
2022-11-13T18:49:25.808Z,101305.56
2022-11-13T18:51:53.454Z,101303.69
2022-11-13T18:54:21.164Z,101302.00
2022-11-13T18:56:48.854Z,101291.63
2022-11-13T18:59:16.546Z,101308.47
2022-11-13T19:01:45.598Z,101291.75
2022-11-13T19:04:24.228Z,101297.75
2022-11-13T19:06:52.448Z,101306.63
2022-11-13T19:09:20.328Z,101309.47
2022-11-13T19:11:48.226Z,101308.84
2022-11-13T19:14:17.354Z,101298.00
2022-11-13T19:16:46.488Z,101299.94
2022-11-13T19:19:17.387Z,101297.38
2022-11-13T19:21:45.683Z,101286.72
2022-11-13T19:24:14.852Z,101293.94
2022-11-13T19:26:43.047Z,101299.03
2022-11-13T19:29:11.048Z,101293.28
2022-11-13T19:31:38.752Z,101284.22
2022-11-13T19:34:08.815Z,101296.22
2022-11-13T19:36:37.441Z,101278.66
2022-11-13T19:39:05.935Z,101266.69
2022-11-13T19:41:33.775Z,101283.91
2022-11-13T19:44:01.413Z,101286.22
2022-11-13T19:46:31.844Z,101271.44
2022-11-13T19:48:59.526Z,101253.66
2022-11-13T19:51:28.596Z,101262.50
2022-11-13T19:53:58.131Z,101256.78
2022-11-13T19:56:27.117Z,101263.94
2022-11-13T19:58:55.444Z,101264.91
2022-11-13T20:01:24.637Z,101254.13
2022-11-13T20:03:55.119Z,101254.41
2022-11-13T20:06:22.926Z,101263.00
2022-11-13T20:08:51.924Z,101257.59
2022-11-13T20:11:20.384Z,101257.34
2022-11-13T20:13:48.281Z,101250.47
2022-11-13T20:16:17.318Z,101257.25
2022-11-13T20:18:45.318Z,101244.50
2022-11-13T20:21:13.040Z,101259.38
2022-11-13T20:23:40.729Z,101252.28
2022-11-13T20:26:13.592Z,101257.97
2022-11-13T20:28:41.270Z,101256.19
2022-11-13T20:31:14.164Z,101255.53
2022-11-13T20:33:41.813Z,101241.16
2022-11-13T20:36:10.584Z,101246.84
2022-11-13T20:38:38.392Z,101234.66
2022-11-13T20:41:06.629Z,101239.91
2022-11-13T20:43:35.657Z,101244.03
2022-11-13T20:46:04.162Z,101240.16
2022-11-13T20:48:32.124Z,101248.28
2022-11-13T20:51:06.239Z,101246.75
2022-11-13T20:53:35.683Z,101252.31
2022-11-13T20:56:03.465Z,101247.06
2022-11-13T20:58:31.689Z,101248.13
2022-11-13T21:01:04.648Z,101230.41
2022-11-13T21:03:34.938Z,101231.97
2022-11-13T21:06:06.726Z,101228.41
2022-11-13T21:08:34.689Z,101227.66
2022-11-13T21:11:02.909Z,101232.72
2022-11-13T21:13:30.769Z,101228.63
2022-11-13T21:15:58.476Z,101230.34
2022-11-13T21:18:27.668Z,101221.47
2022-11-13T21:20:55.594Z,101224.19
2022-11-13T21:23:23.259Z,101231.72
2022-11-13T21:25:59.539Z,101236.47
2022-11-13T21:28:32.300Z,101230.41
2022-11-13T21:31:02.737Z,101230.31
2022-11-13T21:33:31.814Z,101227.97
2022-11-13T21:36:05.235Z,101221.31
2022-11-13T21:38:32.884Z,101216.50
2022-11-13T21:41:14.717Z,101211.16
2022-11-13T21:43:42.380Z,101211.63
2022-11-13T21:46:10.058Z,101211.91
2022-11-13T21:48:39.490Z,101195.44
2022-11-13T21:51:07.432Z,101197.91
2022-11-13T21:53:35.113Z,101183.38
2022-11-13T21:56:02.816Z,101200.78
2022-11-13T21:58:31.931Z,101192.88
2022-11-13T22:00:59.986Z,101195.13
2022-11-13T22:03:28.480Z,101197.63
2022-11-13T22:06:19.528Z,101189.97
2022-11-13T22:08:48.780Z,101178.84
2022-11-13T22:11:16.441Z,101187.44
2022-11-13T22:13:44.128Z,101166.91
2022-11-13T22:16:12.852Z,101174.44
2022-11-13T22:18:40.632Z,101176.97
2022-11-13T22:21:11.308Z,101187.06
2022-11-13T22:23:40.807Z,101184.00
2022-11-13T22:26:10.079Z,101173.28
2022-11-13T22:28:39.429Z,101183.72
2022-11-13T22:31:07.631Z,101173.34
2022-11-13T22:33:37.059Z,101174.91
2022-11-13T22:36:05.887Z,101178.47
2022-11-13T22:38:34.395Z,101182.72
2022-11-13T22:41:07.945Z,101188.16
2022-11-13T22:43:37.205Z,101180.56
2022-11-13T22:46:06.330Z,101184.44
2022-11-13T22:48:35.253Z,101177.78
2022-11-13T22:51:04.225Z,101176.28
2022-11-13T22:53:31.897Z,101179.66
2022-11-13T22:56:03.492Z,101178.47
2022-11-13T22:58:32.664Z,101161.94
2022-11-13T23:01:07.736Z,101161.09
2022-11-13T23:03:38.196Z,101158.03
2022-11-13T23:06:06.388Z,101155.28
2022-11-13T23:08:38.555Z,101136.50
2022-11-13T23:11:06.704Z,101136.56
2022-11-13T23:13:35.783Z,101140.47
2022-11-13T23:16:03.693Z,101126.53
2022-11-13T23:18:32.130Z,101133.53
2022-11-13T23:21:00.309Z,101123.44
2022-11-13T23:23:27.945Z,101125.16
2022-11-13T23:25:55.640Z,101109.22
2022-11-13T23:28:23.340Z,101119.22
2022-11-13T23:30:52.364Z,101095.00
2022-11-13T23:33:20.004Z,101111.22
2022-11-13T23:35:47.711Z,101114.56
2022-11-13T23:38:15.398Z,101111.09
2022-11-13T23:40:43.188Z,101109.47
2022-11-13T23:43:10.868Z,101101.97
2022-11-13T23:45:39.539Z,101099.50
2022-11-13T23:48:08.731Z,101116.19
2022-11-13T23:50:37.688Z,101104.31
2022-11-13T23:53:05.436Z,101116.31
2022-11-13T23:55:33.214Z,101111.75
2022-11-13T23:58:01.651Z,101107.31
